Overview Statistics Trail Chart Weather Telemetry Raw packets
 

This is the latest recevied weather packets stored in our database for station/object W7BTL. If no packets are shown the sender has not sent any weather packets the latest 10 day(s).

<< 50 51 52 53 54 55 56 >>
Time Temp. Humidity Pressure Rain* Wind** Luminosity Snow
1788319701 20.56° C 69% 1013.7 hPa 0 mm - 0 W/m² -
1788319395 21.11° C 70% 1013.6 hPa 0 mm - 0 W/m² -
1788319095 21.11° C 71% 1013.6 hPa 0 mm - 0 W/m² -
1788318791 21.11° C 71% 1013.6 hPa 0 mm - 0 W/m² -
1788318487 21.11° C 71% 1013.5 hPa 0 mm - 0 W/m² -
1788318181 21.11° C 72% 1013.5 hPa 0 mm - 0 W/m² -
1788317880 21.67° C 70% 1013.4 hPa 0 mm - 0 W/m² -
1788317576 21.67° C 69% 1013.5 hPa 0 mm - 0 W/m² -
1788317270 21.67° C 68% 1013.2 hPa 0 mm - 0 W/m² -
1788316966 21.67° C 67% 1013.2 hPa 0 mm - 0 W/m² -
1788316662 21.67° C 68% 1013.1 hPa 0 mm - 0 W/m² -
1788316357 22.22° C 67% 1013.1 hPa 0 mm - 0 W/m² -
1788316056 22.22° C 66% 1013.1 hPa 0 mm - 1 W/m² -
1788315752 22.22° C 64% 1013.2 hPa 0 mm - 2 W/m² -
1788315447 22.22° C 64% 1013.1 hPa 0 mm - 4 W/m² -
1788315147 22.78° C 63% 1013 hPa 0 mm - 7 W/m² -
1788314843 22.78° C 63% 1013.1 hPa 0 mm - 11 W/m² -
1788314539 22.78° C 62% 1013.1 hPa 0 mm - 14 W/m² -
1788314234 22.78° C 61% 1013.1 hPa 0 mm - 17 W/m² -
1788313931 23.33° C 62% 1013.1 hPa 0 mm - 20 W/m² -
1788313626 23.33° C 60% 1013.3 hPa 0 mm - 23 W/m² -
1788313322 23.89° C 59% 1013.2 hPa 0 mm - 26 W/m² -
1788313021 23.89° C 57% 1013.1 hPa 0 mm - 29 W/m² -
1788312716 25° C 54% 1013.1 hPa 0 mm - 39 W/m² -
1788312412 25° C 55% 1013.4 hPa 0 mm - 52 W/m² -

* Rain latest hour (hover to see other rain measurements)
** Current wind speed in m/s (hover to see current wind gust speed)